Time;durP1;ratioP1;P1;durP2;ratioP2;P2;SDS_P1;SDS_P2;PMS_P1;PMS_P2;Temp;Humidity;BMP_temperature;BMP_pressure;BME280_temperature;BME280_humidity;BME280_pressure;Samples;Min_cycle;Max_cycle;Signal;HPM_P1;HPM_P2
2022/04/20 00:02:23;;;;;;;31.35;15.28;;;;;;;8.63;79.47;100264.25;1852792;77;20908;-79
2022/04/20 00:04:53;;;;;;;24.10;14.90;;;;;;;8.64;79.44;100264.62;1852735;77;20858;-80
2022/04/20 00:07:21;;;;;;;29.90;16.70;;;;;;;8.65;79.40;100264.17;1852959;77;20846;-79
2022/04/20 00:09:48;;;;;;;29.65;20.27;;;;;;;8.66;79.39;100266.68;1852789;77;21461;-79
2022/04/20 00:12:16;;;;;;;27.52;17.32;;;;;;;8.66;79.38;100265.84;1852732;77;21393;-81
2022/04/20 00:14:43;;;;;;;36.45;17.52;;;;;;;8.64;79.31;100267.70;1852894;77;20925;-80
2022/04/20 00:17:12;;;;;;;32.98;19.23;;;;;;;8.64;79.31;100271.63;1852797;77;21438;-80
2022/04/20 00:19:38;;;;;;;31.40;19.87;;;;;;;8.63;79.34;100282.55;1853293;76;21425;-79
2022/04/20 00:22:06;;;;;;;29.90;19.87;;;;;;;8.62;79.38;100289.16;1852762;77;21152;-79
2022/04/20 00:24:34;;;;;;;31.57;21.50;;;;;;;8.60;79.33;100290.55;1852712;77;20822;-80
2022/04/20 00:27:02;;;;;;;32.70;20.35;;;;;;;8.61;79.16;100296.64;1852782;77;20910;-80
2022/04/20 00:29:30;;;;;;;35.33;20.50;;;;;;;8.59;79.07;100301.11;1852735;77;20873;-79
2022/04/20 00:31:58;;;;;;;41.23;19.77;;;;;;;8.58;79.00;100307.25;1852884;76;20929;-80
2022/04/20 00:34:26;;;;;;;30.27;19.32;;;;;;;8.57;78.90;100306.42;1852919;77;21316;-79
2022/04/20 00:36:53;;;;;;;29.63;20.80;;;;;;;8.56;78.72;100302.14;1852883;77;20873;-79
2022/04/20 00:39:20;;;;;;;28.12;18.30;;;;;;;8.53;78.64;100307.52;1853036;77;20909;-78
2022/04/20 00:41:46;;;;;;;25.17;18.27;;;;;;;8.53;78.74;100307.98;1852768;77;20850;-79
2022/04/20 00:44:14;;;;;;;30.27;18.40;;;;;;;8.53;78.77;100304.91;1852914;77;21427;-79
2022/04/20 00:46:42;;;;;;;27.65;18.50;;;;;;;8.53;78.73;100311.44;1852893;77;21128;-79
2022/04/20 00:49:10;;;;;;;26.40;18.70;;;;;;;8.53;78.78;100308.82;1852757;77;20838;-79
2022/04/20 00:51:37;;;;;;;23.95;16.65;;;;;;;8.54;78.78;100306.60;1852982;77;21430;-80
2022/04/20 00:54:04;;;;;;;27.60;16.73;;;;;;;8.54;78.71;100310.52;1852840;77;20900;-80
2022/04/20 00:56:32;;;;;;;22.82;17.37;;;;;;;8.54;78.63;100309.22;1852983;77;21323;-80
2022/04/20 00:58:58;;;;;;;21.90;17.10;;;;;;;8.54;78.61;100304.43;1852882;77;21070;-80
2022/04/20 01:01:27;;;;;;;25.17;15.38;;;;;;;8.55;78.65;100302.21;1852758;77;21003;-80
2022/04/20 01:03:55;;;;;;;22.62;14.80;;;;;;;8.55;78.71;100291.76;1852775;77;21458;-80
2022/04/20 01:06:26;;;;;;;18.80;14.98;;;;;;;8.55;78.75;100292.59;1851422;76;20941;-79
2022/04/20 01:09:05;;;;;;;24.10;14.60;;;;;;;8.57;78.77;100294.66;1852211;77;20924;-79
2022/04/20 01:11:44;;;;;;;21.70;14.33;;;;;;;8.56;78.78;100292.98;1837877;76;20873;-78
2022/04/20 01:14:15;;;;;;;17.95;14.23;;;;;;;8.54;78.74;100295.28;1849311;77;20960;-77
2022/04/20 01:16:55;;;;;;;21.50;13.85;;;;;;;8.51;78.71;100300.22;1852665;77;20921;-79
2022/04/20 01:19:34;;;;;;;18.70;13.20;;;;;;;8.48;78.77;100299.94;1848238;77;21433;-78
2022/04/20 01:22:08;;;;;;;18.82;11.68;;;;;;;8.44;78.63;100301.03;1849307;77;20905;-80
2022/04/20 01:24:53;;;;;;;15.48;11.45;;;;;;;8.39;78.61;100303.52;1852952;77;21219;-80
2022/04/20 01:27:41;;;;;;;15.43;11.83;;;;;;;8.35;78.71;100300.69;1852761;77;20949;-79
2022/04/20 01:30:25;;;;;;;14.45;9.88;;;;;;;8.32;78.84;100294.34;1824851;77;21003;-80
2022/04/20 01:32:55;;;;;;;13.95;11.08;;;;;;;8.29;78.89;100287.48;1851615;77;20894;-78
2022/04/20 01:35:43;;;;;;;17.02;10.35;;;;;;;8.30;78.98;100278.74;1852496;77;21351;-79
2022/04/20 01:38:10;;;;;;;16.23;11.93;;;;;;;8.32;79.04;100276.05;1852686;77;21116;-79
2022/04/20 01:40:37;;;;;;;19.70;13.72;;;;;;;8.34;79.08;100276.34;1852611;77;20894;-79
2022/04/20 01:43:05;;;;;;;19.60;14.05;;;;;;;8.33;78.98;100274.64;1853030;77;20991;-80
2022/04/20 01:45:33;;;;;;;22.40;16.48;;;;;;;8.32;78.97;100272.97;1852906;77;20904;-79
2022/04/20 01:48:10;;;;;;;23.83;16.07;;;;;;;8.32;78.98;100276.89;1852752;77;20901;-79
2022/04/20 01:53:52;;;;;;;23.32;17.12;;;;;;;8.32;79.01;100284.72;1852979;77;20861;-79
2022/04/20 01:56:20;;;;;;;24.25;16.42;;;;;;;8.35;78.97;100273.25;1849878;77;21350;-80
2022/04/20 01:59:06;;;;;;;26.25;16.82;;;;;;;8.38;78.88;100279.59;1852789;77;20996;-79
2022/04/20 02:04:22;;;;;;;18.92;14.93;;;;;;;8.37;78.38;100274.02;1852689;77;21238;-79
2022/04/20 02:06:50;;;;;;;20.50;13.80;;;;;;;8.37;78.21;100275.31;1852730;77;20838;-80
2022/04/20 02:09:18;;;;;;;23.57;16.02;;;;;;;8.35;77.98;100262.33;1851897;77;21012;-79
2022/04/20 02:11:48;;;;;;;21.23;15.45;;;;;;;8.34;77.97;100261.97;1852113;77;20921;-78
2022/04/20 02:14:18;;;;;;;18.62;13.98;;;;;;;8.31;77.82;100263.43;1852476;77;20925;-79
2022/04/20 02:16:46;;;;;;;20.88;14.23;;;;;;;8.28;77.68;100255.78;1852717;77;21231;-80
2022/04/20 02:19:35;;;;;;;20.97;14.53;;;;;;;8.25;77.56;100259.88;1852598;77;20924;-80
2022/04/20 02:22:19;;;;;;;20.88;14.83;;;;;;;8.19;77.46;100263.66;1852835;77;21398;-79
2022/04/20 02:24:47;;;;;;;17.98;13.28;;;;;;;8.14;77.49;100258.30;1852657;77;20964;-79
2022/04/20 02:27:14;;;;;;;18.80;13.75;;;;;;;8.09;77.71;100262.04;1852813;77;20920;-81
2022/04/20 02:29:40;;;;;;;19.40;13.15;;;;;;;8.03;77.91;100257.15;1852836;77;21252;-78
2022/04/20 02:32:09;;;;;;;17.82;13.40;;;;;;;7.99;77.90;100258.70;1852846;77;20870;-78
2022/04/20 02:34:39;;;;;;;17.15;12.90;;;;;;;7.96;78.21;100264.95;1852866;77;21077;-79
2022/04/20 02:37:07;;;;;;;17.35;11.88;;;;;;;7.94;78.30;100273.77;1852918;77;20941;-80
2022/04/20 02:39:36;;;;;;;17.82;13.45;;;;;;;7.94;78.54;100276.38;1856239;77;20952;-80
2022/04/20 02:42:08;;;;;;;16.80;12.25;;;;;;;7.96;78.72;100284.53;1842131;77;21289;-80
2022/04/20 02:44:36;;;;;;;18.25;12.00;;;;;;;8.00;78.79;100296.47;1843359;78;21077;-78
2022/04/20 02:47:03;;;;;;;16.80;12.75;;;;;;;8.01;78.84;100302.55;1843342;78;20949;-81
2022/04/20 02:49:32;;;;;;;17.95;12.30;;;;;;;8.03;78.77;100297.63;1842212;78;20920;-79
2022/04/20 02:52:56;;;;;;;16.87;13.15;;;;;;;8.13;78.62;100305.78;1816426;79;22534;-80
2022/04/20 02:55:25;;;;;;;19.12;13.58;;;;;;;8.10;78.49;100312.02;1789571;80;20891;-79
2022/04/20 02:57:51;;;;;;;20.52;14.10;;;;;;;8.12;78.44;100308.03;1789522;80;21116;-80
2022/04/20 03:00:20;;;;;;;21.10;14.13;;;;;;;8.13;78.27;100307.09;1789478;80;20979;-79
2022/04/20 03:02:48;;;;;;;17.55;14.65;;;;;;;8.10;78.06;100304.19;1788484;79;20963;-80
2022/04/20 03:05:17;;;;;;;17.40;14.07;;;;;;;8.08;78.02;100304.73;1789381;80;20967;-80
2022/04/20 03:07:44;;;;;;;22.00;16.07;;;;;;;8.07;78.11;100306.11;1789448;80;21022;-80
2022/04/20 03:10:12;;;;;;;23.05;16.05;;;;;;;8.05;78.09;100307.99;1789978;80;20896;-79
2022/04/20 03:12:42;;;;;;;22.45;15.43;;;;;;;8.03;78.17;100304.62;1789451;80;20963;-80
2022/04/20 03:15:09;;;;;;;23.15;16.62;;;;;;;8.01;78.31;100305.16;1789906;79;21388;-80
2022/04/20 03:17:37;;;;;;;22.27;16.60;;;;;;;8.00;78.25;100309.52;1789395;80;20959;-80
2022/04/20 03:20:07;;;;;;;21.50;16.27;;;;;;;7.99;78.18;100310.93;1759386;80;20931;-82
2022/04/20 03:22:35;;;;;;;21.20;15.72;;;;;;;7.98;77.74;100317.06;1789740;80;20864;-80
2022/04/20 03:25:04;;;;;;;19.85;14.70;;;;;;;7.93;77.76;100332.14;1789682;80;21325;-81
2022/04/20 03:27:49;;;;;;;18.82;14.75;;;;;;;7.92;77.77;100334.39;1741812;80;21505;-80
2022/04/20 03:30:17;;;;;;;21.37;16.42;;;;;;;7.93;77.74;100335.59;1789386;80;21456;-80
2022/04/20 03:32:44;;;;;;;22.27;16.20;;;;;;;7.96;77.56;100332.83;1789492;80;21074;-81
2022/04/20 03:35:11;;;;;;;19.17;14.00;;;;;;;7.94;77.15;100332.51;1789510;80;21479;-81
2022/04/20 03:37:38;;;;;;;20.17;15.20;;;;;;;7.84;77.04;100341.30;1789472;80;20967;-79
2022/04/20 03:40:07;;;;;;;20.72;15.50;;;;;;;7.77;77.11;100346.01;1789812;80;20931;-79
2022/04/20 03:42:36;;;;;;;20.30;14.70;;;;;;;7.74;77.16;100340.96;1759883;80;20860;-80
2022/04/20 03:45:03;;;;;;;20.85;14.65;;;;;;;7.74;77.12;100336.21;1789501;80;20935;-81
2022/04/20 03:47:29;;;;;;;21.35;15.25;;;;;;;7.71;77.05;100338.49;1789669;80;21131;-81
2022/04/20 03:49:56;;;;;;;20.37;14.98;;;;;;;7.67;77.21;100341.75;1789324;80;20888;-79
2022/04/20 03:52:22;;;;;;;16.87;13.43;;;;;;;7.66;77.41;100344.42;1780389;80;20928;-80
2022/04/20 03:54:51;;;;;;;19.32;13.60;;;;;;;7.66;77.62;100350.48;1776011;80;20928;-81
2022/04/20 03:57:19;;;;;;;14.87;12.78;;;;;;;7.70;77.60;100352.48;1776060;80;20928;-80
2022/04/20 03:59:46;;;;;;;15.95;13.25;;;;;;;7.75;77.67;100356.16;1776112;80;21248;-80
2022/04/20 04:02:17;;;;;;;17.82;13.58;;;;;;;7.76;77.58;100357.39;1775806;80;20849;-80
2022/04/20 04:04:45;;;;;;;16.75;12.58;;;;;;;7.79;77.75;100351.99;1775382;80;20881;-79
2022/04/20 04:07:14;;;;;;;18.57;13.78;;;;;;;7.86;77.48;100355.95;1773437;80;21488;-80
2022/04/20 04:09:42;;;;;;;16.97;13.38;;;;;;;7.91;77.30;100347.88;1775531;80;20959;-80
2022/04/20 04:12:10;;;;;;;21.40;15.83;;;;;;;7.94;77.13;100343.81;1775604;80;21146;-80
2022/04/20 04:14:40;;;;;;;21.15;15.08;;;;;;;7.98;76.92;100343.17;1774691;80;20991;-80
2022/04/20 04:17:08;;;;;;;23.52;15.63;;;;;;;7.95;76.70;100342.05;1775393;80;20932;-81
2022/04/20 04:19:36;;;;;;;23.47;16.35;;;;;;;7.88;76.96;100342.36;1775486;80;21438;-80
2022/04/20 04:22:05;;;;;;;25.97;17.40;;;;;;;7.84;77.13;100342.14;1775523;80;20892;-81
2022/04/20 04:24:37;;;;;;;19.92;15.15;;;;;;;7.84;77.16;100351.28;1775364;80;21129;-80
2022/04/20 04:27:09;;;;;;;24.57;17.17;;;;;;;7.84;77.37;100355.66;1774967;80;20921;-80
2022/04/20 04:29:38;;;;;;;25.68;15.58;;;;;;;7.84;77.52;100362.19;1775493;80;21366;-81
2022/04/20 04:32:06;;;;;;;22.40;15.63;;;;;;;7.91;77.54;100366.16;1775517;80;20924;-80
2022/04/20 04:34:33;;;;;;;21.62;15.93;;;;;;;8.00;77.47;100359.13;1775462;80;20900;-79
2022/04/20 04:37:02;;;;;;;21.20;14.30;;;;;;;8.10;77.31;100359.03;1775149;80;21343;-80
2022/04/20 04:39:30;;;;;;;18.75;14.45;;;;;;;8.18;76.94;100355.16;1775354;80;21572;-80
2022/04/20 04:41:57;;;;;;;22.80;15.55;;;;;;;8.20;76.68;100358.53;1775255;80;20873;-81
2022/04/20 04:44:24;;;;;;;18.02;15.15;;;;;;;8.22;76.42;100361.44;1775282;80;20905;-79
2022/04/20 04:49:39;;;;;;;22.60;14.30;;;;;;;8.33;76.15;100354.32;1767156;80;20975;-79
2022/04/20 04:52:11;;;;;;;23.47;15.03;;;;;;;8.37;76.03;100355.01;1778137;80;21330;-80
2022/04/20 04:54:42;;;;;;;21.07;15.32;;;;;;;8.37;75.88;100355.01;1784358;80;20884;-80
2022/04/20 04:57:11;;;;;;;22.75;14.58;;;;;;;8.35;75.85;100356.39;1783827;79;20924;-79
2022/04/20 04:59:41;;;;;;;16.35;12.65;;;;;;;8.33;75.87;100363.94;1784085;80;20940;-80
2022/04/20 05:02:08;;;;;;;18.87;13.43;;;;;;;8.32;75.72;100372.72;1784445;80;21115;-81
2022/04/20 05:04:35;;;;;;;17.15;13.20;;;;;;;8.33;75.59;100379.14;1784147;80;20928;-81
2022/04/20 05:07:04;;;;;;;20.15;17.48;;;;;;;8.35;75.51;100377.30;1784072;80;20920;-80
2022/04/20 05:09:41;;;;;;;16.70;13.68;;;;;;;8.37;75.65;100387.20;1784069;80;20948;-81
2022/04/20 05:12:09;;;;;;;18.30;13.45;;;;;;;8.43;75.58;100392.59;1784307;80;21010;-81
2022/04/20 05:14:39;;;;;;;13.60;12.03;;;;;;;8.47;75.04;100394.95;1784002;80;21014;-80
2022/04/20 05:17:07;;;;;;;14.75;12.47;;;;;;;8.46;74.88;100396.34;1784007;80;20967;-80
2022/04/20 05:19:34;;;;;;;16.97;13.50;;;;;;;8.46;74.74;100397.17;1784162;80;20880;-80
2022/04/20 05:22:04;;;;;;;19.25;12.58;;;;;;;8.45;74.80;100393.36;1783631;80;20913;-81
2022/04/20 05:24:36;;;;;;;14.40;13.00;;;;;;;8.42;74.77;100387.81;1784161;80;20892;-81
2022/04/20 05:27:05;;;;;;;15.00;13.18;;;;;;;8.41;74.91;100387.92;1783769;80;21138;-80
2022/04/20 05:29:34;;;;;;;15.90;13.13;;;;;;;8.42;75.22;100392.20;1782218;80;20924;-80
2022/04/20 05:32:02;;;;;;;25.70;20.02;;;;;;;8.44;75.33;100397.72;1783952;80;20936;-82
2022/04/20 05:34:33;;;;;;;23.10;16.62;;;;;;;8.47;75.20;100399.31;1783937;80;21489;-81
2022/04/20 05:42:31;;;;;;;45.98;29.65;;;;;;;8.57;74.25;100400.98;1755485;80;20936;-80
2022/04/20 05:44:59;;;;;;;43.20;27.93;;;;;;;8.61;73.92;100390.27;1783863;80;20979;-80
2022/04/20 05:47:27;;;;;;;40.28;28.10;;;;;;;8.67;73.56;100395.16;1783822;80;21034;-81
2022/04/20 05:49:55;;;;;;;34.63;25.23;;;;;;;8.73;73.24;100395.27;1783972;80;20888;-80
2022/04/20 05:52:22;;;;;;;39.35;28.35;;;;;;;8.74;72.97;100390.44;1783619;80;21766;-82
2022/04/20 05:54:49;;;;;;;44.90;30.97;;;;;;;8.69;72.86;100394.61;1783754;80;20975;-81
2022/04/20 05:57:16;;;;;;;40.52;28.15;;;;;;;8.69;72.73;100404.20;1784322;80;20873;-82
2022/04/20 05:59:46;;;;;;;39.70;29.07;;;;;;;8.70;72.56;100406.74;1784083;80;20900;-81
2022/04/20 06:02:13;;;;;;;41.50;27.75;;;;;;;8.75;72.39;100401.73;1784005;80;20884;-81
2022/04/20 06:04:40;;;;;;;40.83;28.98;;;;;;;8.79;72.16;100400.16;1755501;80;21197;-80
2022/04/20 06:07:08;;;;;;;45.03;31.52;;;;;;;8.84;72.12;100397.28;1781697;80;21523;-81
2022/04/20 06:09:41;;;;;;;38.78;26.93;;;;;;;8.91;72.36;100398.62;1783477;80;20960;-80
2022/04/20 06:12:10;;;;;;;42.20;27.73;;;;;;;9.00;72.22;100398.09;1783682;80;21461;-81
2022/04/20 06:14:54;;;;;;;38.28;26.20;;;;;;;9.07;72.01;100394.66;1717363;83;21453;-80
2022/04/20 06:17:27;;;;;;;35.83;23.55;;;;;;;9.17;71.62;100391.06;1715179;83;20904;-81
2022/04/20 06:19:55;;;;;;;34.90;22.82;;;;;;;9.27;71.24;100391.76;1693743;83;20920;-80
2022/04/20 06:22:25;;;;;;;30.02;22.40;;;;;;;9.34;70.89;100386.53;1716292;83;20915;-80
2022/04/20 06:25:08;;;;;;;33.23;22.82;;;;;;;9.41;70.68;100377.86;1717396;83;20976;-81
2022/04/20 06:27:36;;;;;;;35.25;23.20;;;;;;;9.49;70.73;100370.41;1717400;83;21411;-82
2022/04/20 06:30:06;;;;;;;29.85;20.70;;;;;;;9.58;70.85;100361.12;1703388;83;21170;-82
2022/04/20 06:32:36;;;;;;;30.08;21.75;;;;;;;9.69;70.71;100374.89;1717141;83;21026;-80
2022/04/20 06:35:22;;;;;;;28.12;19.25;;;;;;;9.81;70.69;100381.19;1717612;83;20991;-81
2022/04/20 06:38:08;;;;;;;29.82;20.88;;;;;;;9.93;70.28;100385.66;1717626;83;21019;-82
2022/04/20 06:40:40;;;;;;;27.93;19.57;;;;;;;10.03;69.96;100396.44;1717588;83;20916;-82
2022/04/20 06:43:25;;;;;;;29.45;20.80;;;;;;;10.11;69.70;100398.09;1717400;83;21178;-82
2022/04/20 06:46:12;;;;;;;25.82;19.12;;;;;;;10.20;69.48;100401.93;1717363;83;21023;-81
2022/04/20 06:48:47;;;;;;;25.25;18.62;;;;;;;10.27;69.20;100399.30;1737068;80;20968;-80
2022/04/20 06:51:20;;;;;;;30.85;18.95;;;;;;;10.33;68.77;100401.09;1781996;80;21373;-81
2022/04/20 06:59:32;;;;;;;32.08;17.62;;;;;;;10.38;67.81;100396.87;1783694;80;20963;-80
2022/04/20 07:02:01;;;;;;;25.12;17.15;;;;;;;10.37;67.55;100399.97;1775474;80;20959;-81
2022/04/20 07:04:30;;;;;;;28.05;17.52;;;;;;;10.36;67.68;100399.61;1773451;80;21531;-80
2022/04/20 07:07:00;;;;;;;23.50;17.82;;;;;;;10.35;67.42;100391.36;1759557;80;20912;-81
2022/04/20 07:09:38;;;;;;;25.52;17.73;;;;;;;10.33;67.39;100393.70;1780094;80;21170;-81
2022/04/20 07:12:08;;;;;;;27.37;15.43;;;;;;;10.31;67.14;100379.37;1782373;80;20884;-82
2022/04/20 07:14:36;;;;;;;25.95;19.27;;;;;;;10.35;66.92;100373.48;1783709;80;20935;-79
2022/04/20 07:17:03;;;;;;;24.02;18.25;;;;;;;10.35;67.03;100365.14;1784112;80;21023;-82
2022/04/20 07:19:32;;;;;;;32.08;18.07;;;;;;;10.39;67.15;100357.94;1783450;80;20923;-82
2022/04/20 07:22:17;;;;;;;28.62;17.12;;;;;;;10.49;67.35;100352.94;1784088;80;21155;-81
2022/04/20 07:24:56;;;;;;;26.57;17.80;;;;;;;10.58;67.38;100353.66;1781847;80;20931;-82
2022/04/20 07:27:40;;;;;;;26.48;18.35;;;;;;;10.63;67.16;100355.98;1783809;80;20998;-80
2022/04/20 07:30:26;;;;;;;22.70;17.65;;;;;;;10.74;67.36;100358.30;1783719;80;21397;-82
2022/04/20 07:33:16;;;;;;;23.47;16.05;;;;;;;10.94;67.61;100350.44;1783729;80;20877;-81
2022/04/20 07:35:46;;;;;;;25.62;18.48;;;;;;;11.21;67.31;100360.05;1741860;80;20923;-82
2022/04/20 07:38:18;;;;;;;22.40;18.73;;;;;;;11.56;67.07;100370.80;1744771;80;20936;-81
2022/04/20 07:41:03;;;;;;;22.27;17.75;;;;;;;11.86;66.26;100385.39;1784074;80;21484;-81
2022/04/20 07:43:49;;;;;;;25.40;19.30;;;;;;;12.11;64.28;100385.03;1781597;80;20853;-81
2022/04/20 07:46:26;;;;;;;22.75;18.65;;;;;;;12.23;62.68;100398.64;1782515;80;20864;-82
2022/04/20 07:50:18;;;;;;;24.05;18.02;;;;;;;12.23;62.96;100396.84;1737506;80;21156;-82
2022/04/20 07:51:42;;;;;;;22.87;18.42;;;;;;;12.20;62.07;100403.61;1781988;80;21133;-80
2022/04/20 07:54:17;;;;;;;30.35;19.85;;;;;;;12.08;61.50;100410.23;1772735;80;21409;-82
2022/04/20 07:56:59;;;;;;;28.92;19.82;;;;;;;12.00;62.07;100410.27;1774959;80;20908;-82
2022/04/20 07:59:28;;;;;;;32.73;21.62;;;;;;;11.95;61.98;100410.23;1766453;80;21354;-83
2022/04/20 08:01:56;;;;;;;29.27;21.87;;;;;;;11.82;62.55;100408.88;1772385;80;21135;-81
2022/04/20 08:04:42;;;;;;;30.65;20.65;;;;;;;11.74;62.76;100413.84;1775186;80;20940;-81
2022/04/20 08:07:12;;;;;;;38.17;22.73;;;;;;;11.61;62.90;100415.97;1775070;80;20943;-82
2022/04/20 08:09:39;;;;;;;34.67;22.60;;;;;;;11.51;63.43;100417.52;1775785;80;20991;-82
2022/04/20 08:12:09;;;;;;;29.12;21.40;;;;;;;11.43;63.39;100421.16;1775354;80;20845;-81
2022/04/20 08:14:36;;;;;;;27.85;21.65;;;;;;;11.37;63.83;100413.20;1753194;80;21853;-81
2022/04/20 08:17:04;;;;;;;31.68;22.37;;;;;;;11.34;63.92;100415.20;1766670;80;20885;-81
2022/04/20 08:19:44;;;;;;;27.82;21.30;;;;;;;11.31;64.26;100407.52;1772321;80;21022;-82
2022/04/20 08:22:17;;;;;;;30.37;21.12;;;;;;;11.30;64.02;100407.16;1774250;80;20932;-83
2022/04/20 08:24:43;;;;;;;27.35;21.68;;;;;;;11.32;64.39;100400.86;1775281;80;20901;-82
2022/04/20 08:27:10;;;;;;;27.93;20.00;;;;;;;11.35;64.54;100401.12;1775339;80;21902;-82
2022/04/20 08:29:36;;;;;;;27.67;20.72;;;;;;;11.34;64.38;100395.52;1775462;80;20893;-82
2022/04/20 08:32:04;;;;;;;26.85;20.27;;;;;;;11.28;64.33;100397.23;1775526;80;20908;-82
2022/04/20 08:34:30;;;;;;;32.88;21.87;;;;;;;11.22;64.18;100395.01;1775387;80;21500;-82
2022/04/20 08:36:57;;;;;;;30.05;21.12;;;;;;;11.21;64.39;100392.86;1775313;80;20893;-81
2022/04/20 08:39:23;;;;;;;27.13;19.82;;;;;;;11.28;64.57;100390.67;1775581;80;21202;-83
2022/04/20 08:41:51;;;;;;;27.22;19.95;;;;;;;11.31;64.68;100397.84;1775769;80;20948;-82
2022/04/20 08:44:28;;;;;;;27.48;20.62;;;;;;;11.30;64.59;100392.25;1775710;80;21508;-82
2022/04/20 08:46:56;;;;;;;31.75;21.60;;;;;;;11.28;64.76;100394.13;1775728;80;20928;-80
2022/04/20 08:49:24;;;;;;;24.92;20.85;;;;;;;11.27;64.53;100391.59;1775651;80;20912;-82
2022/04/20 08:54:39;;;;;;;25.45;20.55;;;;;;;11.27;64.75;100400.78;1782562;80;20979;-82
2022/04/20 08:57:17;;;;;;;24.43;17.55;;;;;;;11.31;64.37;100404.41;1783530;80;20924;-84
2022/04/20 08:59:51;;;;;;;29.23;24.43;;;;;;;11.36;64.40;100402.79;1783454;80;20939;-81
2022/04/20 09:02:22;;;;;;;11.93;9.93;;;;;;;11.43;63.94;100408.47;1783628;80;21015;-81
2022/04/20 09:04:48;;;;;;;10.45;9.45;;;;;;;11.44;63.52;100401.81;1783842;80;21820;-81
2022/04/20 09:07:15;;;;;;;14.07;11.48;;;;;;;11.47;63.82;100396.83;1783698;80;21417;-81
2022/04/20 09:09:42;;;;;;;12.43;10.08;;;;;;;11.50;64.12;100402.72;1783557;80;21038;-81
2022/04/20 09:12:16;;;;;;;11.30;10.28;;;;;;;11.52;64.24;100401.31;1783479;80;20896;-82
2022/04/20 09:14:44;;;;;;;12.85;10.68;;;;;;;11.48;64.58;100403.77;1782257;80;20955;-82
2022/04/20 09:17:13;;;;;;;11.00;9.90;;;;;;;11.48;64.96;100403.77;1784985;80;20935;-83
2022/04/20 09:19:40;;;;;;;14.70;12.00;;;;;;;11.44;64.83;100400.50;1784270;80;20932;-81
2022/04/20 09:22:29;;;;;;;10.55;9.13;;;;;;;11.41;65.37;100400.72;1783787;80;20848;-81
2022/04/20 09:25:11;;;;;;;12.30;9.78;;;;;;;11.39;65.17;100406.06;1783538;80;20931;-81
2022/04/20 09:27:40;;;;;;;13.18;11.22;;;;;;;11.34;65.20;100403.39;1783606;80;20995;-80
2022/04/20 09:30:14;;;;;;;9.75;8.85;;;;;;;11.31;65.40;100403.58;1783574;80;21147;-79
2022/04/20 09:32:46;;;;;;;8.23;7.50;;;;;;;11.29;65.37;100406.30;1783385;80;21019;-81
2022/04/20 09:35:19;;;;;;;10.43;9.23;;;;;;;11.29;65.48;100398.42;1783505;80;20900;-80
2022/04/20 09:37:48;;;;;;;9.78;8.83;;;;;;;11.35;65.56;100399.33;1783518;80;20904;-82
2022/04/20 09:40:37;;;;;;;9.13;8.23;;;;;;;11.47;65.82;100396.83;1758524;80;21322;-81
2022/04/20 09:43:08;;;;;;;11.22;8.55;;;;;;;11.61;65.68;100401.52;1783496;80;21297;-82
2022/04/20 09:45:36;;;;;;;9.15;8.33;;;;;;;11.69;65.49;100400.16;1783429;80;21377;-79
2022/04/20 09:51:15;;;;;;;9.90;8.90;;;;;;;11.84;65.25;100403.05;1783568;80;20916;-80
2022/04/20 09:53:44;;;;;;;9.15;8.00;;;;;;;11.91;64.61;100401.70;1783485;80;20990;-81
2022/04/20 09:56:17;;;;;;;10.50;9.50;;;;;;;11.92;64.68;100414.39;1783500;80;21377;-80
2022/04/20 09:58:44;;;;;;;10.35;9.18;;;;;;;11.89;64.73;100419.36;1783465;80;21105;-81
2022/04/20 10:01:32;;;;;;;10.35;9.35;;;;;;;11.88;65.12;100417.69;1783404;80;20943;-81
2022/04/20 10:04:00;;;;;;;10.15;9.18;;;;;;;11.84;65.01;100422.75;1783917;80;21480;-81
2022/04/20 10:06:26;;;;;;;12.15;10.43;;;;;;;11.70;65.35;100424.19;1783859;80;20888;-81
2022/04/20 10:08:53;;;;;;;11.18;10.05;;;;;;;11.55;65.91;100430.82;1783872;80;21113;-82
2022/04/20 10:11:22;;;;;;;11.33;10.32;;;;;;;11.41;66.69;100438.80;1753192;80;21346;-81
2022/04/20 10:16:50;;;;;;;10.08;8.58;;;;;;;11.16;67.90;100435.16;1716460;83;20956;-80
2022/04/20 10:19:27;;;;;;;9.98;8.88;;;;;;;11.01;68.66;100436.16;1716888;83;20904;-79
2022/04/20 10:21:55;;;;;;;11.53;10.13;;;;;;;10.94;69.29;100442.27;1717018;83;21413;-81
2022/04/20 10:24:28;;;;;;;11.35;10.25;;;;;;;10.86;69.84;100442.39;1716540;83;21011;-84
2022/04/20 10:27:02;;;;;;;12.37;11.18;;;;;;;10.79;70.19;100436.22;1716651;83;20951;-83
2022/04/20 10:29:49;;;;;;;11.08;9.88;;;;;;;10.81;71.01;100430.88;1716726;83;20912;-81
2022/04/20 10:32:22;;;;;;;12.50;10.55;;;;;;;10.86;70.91;100431.42;1715740;83;21564;-82
2022/04/20 10:34:50;;;;;;;13.93;11.00;;;;;;;10.90;70.75;100429.45;1716659;83;21101;-80
2022/04/20 10:37:25;;;;;;;13.68;10.43;;;;;;;10.91;70.00;100428.02;1716493;83;21094;-82
2022/04/20 10:40:15;;;;;;;10.53;9.28;;;;;;;10.86;69.73;100432.73;1715714;83;20896;-80
2022/04/20 10:42:42;;;;;;;10.28;8.10;;;;;;;10.80;69.51;100425.25;1696853;83;21489;-82
2022/04/20 10:45:10;;;;;;;15.50;10.20;;;;;;;10.81;69.34;100432.67;1717037;83;20911;-80
2022/04/20 10:47:42;;;;;;;11.15;9.43;;;;;;;10.87;69.57;100431.80;1716625;83;21418;-79
2022/04/20 10:50:20;;;;;;;10.58;9.48;;;;;;;11.01;69.67;100440.57;1716978;83;21441;-81
2022/04/20 10:53:03;;;;;;;9.08;8.00;;;;;;;11.13;68.97;100440.59;1720517;80;21326;-79
2022/04/20 10:55:41;;;;;;;9.88;8.40;;;;;;;11.25;68.29;100440.73;1748001;82;20956;-81
2022/04/20 10:58:20;;;;;;;10.08;7.85;;;;;;;11.41;68.68;100441.42;1748228;82;21034;-82
2022/04/20 11:01:09;;;;;;;8.73;7.83;;;;;;;11.70;67.79;100438.15;1748251;82;21256;-79
2022/04/20 11:04:10;;;;;;;8.08;7.28;;;;;;;11.82;66.46;100440.41;1724394;82;20904;-80
2022/04/20 11:07:03;;;;;;;8.73;7.80;;;;;;;11.96;66.25;100438.17;1746883;82;21070;-81
2022/04/20 11:09:52;;;;;;;6.87;5.55;;;;;;;12.16;66.75;100432.41;1748134;82;20948;-81
2022/04/20 11:21:15;;;;;;;6.78;5.10;;;;;;;13.03;61.68;100429.25;1746801;82;20941;-79
2022/04/20 11:24:00;;;;;;;6.42;5.80;;;;;;;13.03;61.58;100420.53;1748297;82;20955;-80
2022/04/20 11:26:33;;;;;;;6.67;5.97;;;;;;;13.10;61.27;100420.43;1748365;82;21547;-81
2022/04/20 11:29:18;;;;;;;7.72;6.08;;;;;;;13.11;61.03;100423.41;1748415;82;21253;-80
2022/04/20 11:31:53;;;;;;;6.50;5.62;;;;;;;13.15;61.05;100418.28;1748562;81;20955;-81
2022/04/20 11:34:21;;;;;;;6.53;4.80;;;;;;;13.30;59.63;100416.34;1748268;82;20920;-82
2022/04/20 11:36:51;;;;;;;4.45;3.98;;;;;;;13.42;58.41;100416.73;1748251;81;20999;-81
2022/04/20 11:39:23;;;;;;;6.72;3.80;;;;;;;13.57;57.09;100425.28;1748428;82;21028;-80
2022/04/20 11:41:54;;;;;;;4.85;4.40;;;;;;;13.58;57.01;100411.62;1748351;82;21362;-80
2022/04/20 11:44:23;;;;;;;6.50;4.83;;;;;;;13.51;56.82;100424.42;1748224;82;20944;-81
2022/04/20 11:46:52;;;;;;;5.60;4.03;;;;;;;13.45;56.92;100411.70;1748500;82;20996;-80
2022/04/20 11:49:20;;;;;;;5.20;2.87;;;;;;;13.50;56.11;100414.02;1748537;81;21086;-81
2022/04/20 11:51:57;;;;;;;6.95;2.20;;;;;;;13.62;55.08;100401.22;1748466;82;20996;-81
2022/04/20 11:54:22;;;;;;;2.45;1.98;;;;;;;13.68;52.41;100408.17;1762834;80;22140;-81
2022/04/20 11:57:10;;;;;;;5.92;2.65;;;;;;;13.71;52.00;100413.69;1783821;80;20938;-80
2022/04/20 11:59:47;;;;;;;3.67;2.80;;;;;;;13.63;53.60;100412.13;1783869;80;20903;-81
2022/04/20 12:02:17;;;;;;;5.12;3.40;;;;;;;13.38;54.67;100404.73;1781241;80;20927;-81
2022/04/20 12:04:46;;;;;;;5.47;3.85;;;;;;;12.96;56.39;100424.53;1784226;80;20888;-81
2022/04/20 12:07:16;;;;;;;3.27;2.50;;;;;;;12.58;56.89;100418.48;1783876;80;21466;-83
2022/04/20 12:09:45;;;;;;;4.37;3.00;;;;;;;12.37;58.04;100413.44;1783974;80;21513;-80
2022/04/20 12:12:12;;;;;;;5.47;2.77;;;;;;;12.28;58.67;100419.34;1784154;80;21445;-80
2022/04/20 12:14:40;;;;;;;3.35;2.58;;;;;;;12.27;58.01;100420.28;1783728;80;20935;-81
2022/04/20 12:17:11;;;;;;;2.62;2.17;;;;;;;12.20;58.94;100419.39;1783942;80;20931;-81